Data for 03/19/2005

Time Sea-Level Adjusted Pressure Absolute Pressure Temperature Relative Humidity Dew Point   
(mb) (inHg) (mb) (inHg) (C) (F) (%) (C) (F)
00:05 1008 29.77 838 24.75 -1.9 28.7 86 -3.9 24.9
00:10 1008 29.77 838 24.75 -1.8 28.7 86 -3.8 25.1
00:15 1008 29.77 838 24.75 -1.9 28.6 87 -3.8 25.2
00:20 1008 29.77 838 24.75 -1.9 28.6 87 -3.8 25.1
00:25 1008 29.77 838 24.75 -1.9 28.6 86 -3.8 25.1
00:30 1008 29.77 838 24.75 -1.9 28.6 87 -3.8 25.1
00:35 1008 29.77 838 24.75 -1.9 28.6 87 -3.8 25.2
00:40 1008 29.77 838 24.75 -1.9 28.6 87 -3.8 25.1
00:45 1008 29.77 838 24.75 -1.9 28.6 87 -3.7 25.3
00:50 1008 29.77 838 24.75 -1.9 28.6 88 -3.7 25.4
00:55 1008 29.77 838 24.75 -1.9 28.6 88 -3.6 25.5
01:00 1009 29.8 838 24.75 -1.9 28.5 88 -3.6 25.4
01:05 1008 29.77 838 24.75 -2 28.4 88 -3.7 25.3
01:10 1009 29.8 838 24.75 -2 28.3 88 -3.7 25.3
01:15 1009 29.8 838 24.75 -2.1 28.2 89 -3.7 25.3
01:20 1009 29.8 838 24.75 -2.2 28.1 89 -3.8 25.2
01:25 1009 29.8 838 24.75 -2.2 28.1 89 -3.7 25.3
01:30 1009 29.8 838 24.75 -2.3 27.9 90 -3.8 25.2
01:35 1009 29.8 838 24.75 -2.3 27.9 90 -3.7 25.3
01:40 1009 29.8 838 24.75 -2.3 27.9 90 -3.7 25.3
01:45 1009 29.8 838 24.75 -2.3 27.9 90 -3.7 25.3
01:50 1009 29.8 838 24.75 -2.3 27.8 91 -3.7 25.4
01:55 1009 29.8 838 24.75 -2.3 27.9 91 -3.6 25.5
02:00 1009 29.8 838 24.75 -2.4 27.7 91 -3.7 25.4
02:05 1009 29.8 838 24.75 -2.4 27.6 91 -3.7 25.3
02:10 1009 29.8 838 24.75 -2.4 27.7 90 -3.7 25.3
02:15 1009 29.8 838 24.75 -2.4 27.7 90 -3.8 25.2
02:20 1009 29.8 838 24.75 -2.5 27.6 90 -4 24.9
02:25 1009 29.8 838 24.75 -2.5 27.6 88 -4.1 24.6
02:30 1009 29.8 838 24.75 -2.5 27.5 88 -4.2 24.4
02:35 1008 29.77 838 24.75 -2.5 27.5 88 -4.1 24.5
02:40 1008 29.77 837 24.72 -2.6 27.4 88 -4.3 24.3
02:45 1008 29.77 837 24.72 -2.6 27.4 87 -4.4 24.1
02:50 1008 29.77 837 24.72 -2.6 27.4 86 -4.6 23.8
02:55 1008 29.77 837 24.72 -2.6 27.4 85 -4.7 23.6
03:00 1008 29.77 837 24.72 -2.5 27.5 84 -4.8 23.4
03:05 1008 29.77 837 24.72 -2.5 27.6 84 -4.8 23.3
03:10 1008 29.77 837 24.72 -2.4 27.6 83 -4.9 23.2
03:15 1008 29.77 837 24.72 -2.4 27.7 83 -4.9 23.1
03:20 1008 29.77 837 24.72 -2.5 27.6 83 -5 23
03:25 1008 29.77 837 24.72 -2.5 27.6 83 -5 23
03:30 1008 29.77 837 24.72 -2.4 27.6 83 -5 23
03:35 1008 29.77 838 24.75 -2.5 27.6 83 -5 23
03:40 1008 29.77 837 24.72 -2.5 27.6 83 -5 23
03:45 1008 29.77 837 24.72 -2.5 27.6 83 -5 23
03:50 1008 29.77 837 24.72 -2.5 27.5 82 -5.1 22.8
03:55 1008 29.77 837 24.72 -2.6 27.3 83 -5.1 22.8
04:00 1008 29.77 837 24.72 -2.7 27.2 83 -5.2 22.7
04:05 1008 29.77 837 24.72 -2.7 27.2 84 -5.1 22.9
04:10 1008 29.77 837 24.72 -2.7 27.1 84 -5.1 22.8
04:15 1008 29.77 838 24.75 -2.8 27 84 -5.1 22.8
04:20 1008 29.77 838 24.75 -2.8 27 84 -5.1 22.8
04:25 1008 29.77 838 24.75 -2.8 27 84 -5.1 22.8
04:30 1008 29.77 838 24.75 -2.8 26.9 85 -5.1 22.8
04:35 1008 29.77 838 24.75 -2.8 26.9 85 -5.1 22.9
04:40 1008 29.77 838 24.75 -2.9 26.9 85 -5 23
04:45 1008 29.77 837 24.72 -2.9 26.7 85 -5.1 22.8
04:50 1008 29.77 838 24.75 -3 26.6 86 -5.1 22.8
04:55 1008 29.77 838 24.75 -3 26.5 86 -5.1 22.8
05:00 1008 29.77 837 24.72 -3.1 26.5 86 -5.2 22.7
05:05 1008 29.77 838 24.75 -3.1 26.4 85 -5.2 22.6
05:10 1008 29.77 838 24.75 -3 26.6 85 -5.2 22.7
05:15 1008 29.77 838 24.75 -2.9 26.7 85 -5.1 22.8
05:20 1008 29.77 838 24.75 -3 26.7 85 -5.2 22.7
05:25 1008 29.77 838 24.75 -3 26.7 84 -5.3 22.5
05:30 1008 29.77 838 24.75 -2.9 26.7 84 -5.2 22.6
05:35 1009 29.8 838 24.75 -3 26.5 89 -4.6 23.7
05:40 1009 29.8 838 24.75 -3.5 25.7 92 -4.6 23.8
05:45 1009 29.8 838 24.75 -3.7 25.3 94 -4.6 23.8
05:50 1009 29.8 838 24.75 -4 24.8 95 -4.7 23.6
05:55 1009 29.8 838 24.75 -4.1 24.6 96 -4.7 23.5
06:00 1009 29.8 838 24.75 -4.3 24.2 97 -4.8 23.3
06:05 1008 29.77 838 24.75 -4.2 24.4 93 -5.2 22.6
06:10 1008 29.77 838 24.75 -3.7 25.4 88 -5.3 22.4
06:15 1008 29.77 838 24.75 -3.4 25.9 87 -5.3 22.5
06:20 1008 29.77 838 24.75 -3.4 25.9 86 -5.3 22.4
06:25 1008 29.77 838 24.75 -3.3 26.1 86 -5.3 22.5
06:30 1008 29.77 838 24.75 -3.3 26.1 86 -5.2 22.6
06:35 1009 29.8 838 24.75 -3.4 25.9 89 -5 23.1
06:40 1009 29.8 838 24.75 -3.7 25.4 90 -5.1 22.8
06:45 1009 29.8 838 24.75 -3.7 25.3 90 -5.1 22.9
06:50 1009 29.8 838 24.75 -4 24.8 92 -5.1 22.7
06:55 1009 29.8 838 24.75 -4.3 24.4 94 -5.1 22.9
07:00 1009 29.8 838 24.75 -4.2 24.4 94 -5.1 22.9
07:05 1009 29.8 838 24.75 -4.2 24.4 95 -5 23
07:10 1009 29.8 838 24.75 -4.1 24.5 93 -5.1 22.8
07:15 1009 29.8 838 24.75 -4.1 24.6 93 -5.1 22.9
07:20 1009 29.8 838 24.75 -4.2 24.4 93 -5.1 22.7
07:25 1009 29.8 838 24.75 -4.2 24.4 93 -5.2 22.7
07:30 1009 29.8 838 24.75 -4.2 24.4 94 -5.1 22.9
07:35 1009 29.8 838 24.75 -4.1 24.6 92 -5.2 22.7
07:40 1009 29.8 838 24.75 -3.3 26.1 87 -5.2 22.7
07:45 1009 29.8 838 24.75 -2.8 27 85 -5 23
07:50 1009 29.8 838 24.75 -2.6 27.3 83 -5.1 22.9
07:55 1009 29.8 838 24.75 -2.6 27.3 83 -5.1 22.9
08:00 1009 29.8 838 24.75 -2.4 27.6 82 -5.1 22.8
08:05 1009 29.8 838 24.75 -2.3 27.9 82 -5 23
08:10 1009 29.8 838 24.75 -2.1 28.2 81 -4.9 23.1
08:15 1009 29.8 838 24.75 -2.1 28.3 80 -5.1 22.7
08:20 1009 29.8 838 24.75 -1.8 28.7 79 -4.9 23.1
08:25 1009 29.8 838 24.75 -1.7 28.9 79 -4.9 23.2
08:30 1009 29.8 838 24.75 -2 28.5 81 -4.9 23.2
08:35 1009 29.8 838 24.75 -2.1 28.3 82 -4.8 23.3
08:40 1009 29.8 838 24.75 -2.5 27.4 85 -4.8 23.4
08:45 1009 29.8 838 24.75 -2.1 28.3 81 -4.9 23.1
08:50 1009 29.8 838 24.75 -1.4 29.4 81 -4.3 24.3
08:55 1009 29.8 838 24.75 -2.2 28.1 84 -4.5 23.9
09:00 1009 29.8 838 24.75 -2.2 28.1 83 -4.6 23.7
09:05 1009 29.8 838 24.75 -2.1 28.2 81 -4.9 23.3
09:10 1009 29.8 838 24.75 -1.7 29 84 -4.1 24.6
09:15 1009 29.8 838 24.75 -2.3 27.9 85 -4.4 24
09:20 1009 29.8 838 24.75 -2.3 27.9 82 -4.9 23.2
09:25 1009 29.8 838 24.75 -1.7 28.9 81 -4.6 23.8
09:30 1009 29.8 838 24.75 -1 30.1 79 -4.3 24.3
09:35 1009 29.8 838 24.75 -0.6 30.8 77 -4.2 24.5
09:40 1009 29.8 838 24.75 -0.3 31.4 76 -4.1 24.6
09:45 1009 29.8 838 24.75 -0.2 31.7 76 -4 24.9
09:50 1009 29.8 838 24.75 -0.4 31.4 76 -4.1 24.6
09:55 1009 29.8 839 24.78 0.1 32.2 73 -4.2 24.4
10:00 1009 29.8 839 24.78 -0.1 31.9 75 -4 24.7
10:05 1009 29.8 839 24.78 -0.7 30.8 77 -4.2 24.5
10:10 1009 29.8 839 24.78 -1.3 29.7 82 -4 24.7
10:15 1009 29.8 839 24.78 -1.6 29.2 81 -4.4 24.1
10:20 1009 29.8 839 24.78 -2.1 28.1 85 -4.4 24.1
10:25 1009 29.8 839 24.78 -1.6 29.1 81 -4.4 24.1
10:30 1009 29.8 839 24.78 -1.3 29.7 79 -4.5 24
10:35 1009 29.8 839 24.78 -1.2 29.8 80 -4.2 24.4
10:40 1009 29.8 839 24.78 -1.8 28.7 83 -4.4 24.1
10:45 1009 29.8 839 24.78 -2.1 28.2 85 -4.3 24.2
10:50 1009 29.8 839 24.78 -2 28.4 84 -4.4 24.1
10:55 1009 29.8 838 24.75 -1.6 29.1 82 -4.2 24.4
11:00 1009 29.8 838 24.75 -1.6 29.1 82 -4.3 24.3
11:05 1009 29.8 838 24.75 -0.3 31.5 75 -4.1 24.6
11:10 1009 29.8 838 24.75 0.4 32.8 76 -3.4 26
11:15 1009 29.8 838 24.75 0.3 32.5 77 -3.2 26.2
11:20 1009 29.8 838 24.75 0.2 32.4 75 -3.7 25.3
11:25 1009 29.8 838 24.75 0.8 33.4 75 -3.2 26.3
11:30 1009 29.8 838 24.75 0.4 32.7 74 -3.7 25.3
11:35 1009 29.8 838 24.75 1.9 35.4 68 -3.4 25.9
11:40 1009 29.8 838 24.75 2.4 36.4 68 -2.8 26.9
11:45 1009 29.8 838 24.75 2.8 37 67 -2.8 26.9
11:50 1009 29.8 838 24.75 2.1 35.8 69 -2.9 26.7
11:55 1009 29.8 838 24.75 1.1 34 75 -2.9 26.8
12:00 1009 29.8 838 24.75 1.6 34.8 71 -3.2 26.2
12:05 1009 29.8 838 24.75 1.6 34.9 72 -3 26.7
12:10 1009 29.8 838 24.75 0.9 33.6 76 -2.8 26.9
12:15 1008 29.77 838 24.75 1.7 35 69 -3.3 26
12:20 1008 29.77 838 24.75 2.3 36.2 69 -2.7 27.1
12:25 1008 29.77 838 24.75 3 37.4 64 -3.2 26.2
12:30 1008 29.77 838 24.75 2.7 36.9 69 -2.4 27.8
12:35 1008 29.77 837 24.72 3 37.5 66 -2.7 27.2
12:40 1008 29.77 837 24.72 3.9 39 64 -2.3 27.8
12:45 1008 29.77 837 24.72 3.4 38.1 68 -2 28.4
12:50 1008 29.77 837 24.72 3.8 38.9 65 -2.1 28.1
12:55 1008 29.77 837 24.72 3.9 39.1 65 -2 28.4
13:00 1008 29.77 837 24.72 3.9 39.1 66 -1.8 28.8
13:05 1008 29.77 837 24.72 3.7 38.7 68 -1.7 28.9
13:10 1008 29.77 837 24.72 3.2 37.8 69 -1.9 28.5
13:15 1008 29.77 837 24.72 4 39.1 64 -2.1 28.1
13:20 1008 29.77 837 24.72 4.2 39.5 66 -1.5 29.2
13:25 1008 29.77 837 24.72 4.2 39.6 66 -1.6 29.1
13:30 1008 29.77 837 24.72 4.1 39.4 65 -1.9 28.5
13:35 1008 29.77 837 24.72 4.2 39.5 66 -1.6 29
13:40 1008 29.77 837 24.72 4.9 40.8 62 -1.7 29
13:45 1008 29.77 837 24.72 4.9 40.8 63 -1.6 29.2
13:50 1008 29.77 837 24.72 4.9 40.9 65 -1.2 29.9
13:55 1008 29.77 837 24.72 4.3 39.7 67 -1.2 29.8
14:00 1008 29.77 837 24.72 4.2 39.6 67 -1.4 29.4
14:05 1008 29.77 837 24.72 5.2 41.4 61 -1.7 28.9
14:10 1007 29.74 837 24.72 5.9 42.5 60 -1.3 29.6
14:15 1008 29.77 837 24.72 5.4 41.8 61 -1.5 29.4
14:20 1007 29.74 837 24.72 4.9 40.8 64 -1.3 29.7
14:25 1008 29.77 837 24.72 4.7 40.4 63 -1.8 28.8
14:30 1007 29.74 837 24.72 4.6 40.3 64 -1.6 29.2
14:35 1007 29.74 837 24.72 4.3 39.7 65 -1.7 29
14:40 1007 29.74 837 24.72 4.8 40.6 62 -1.9 28.5
14:45 1007 29.74 837 24.72 5.2 41.3 63 -1.3 29.7
14:50 1007 29.74 837 24.72 5 41 61 -1.9 28.6
14:55 1007 29.74 836 24.69 4.7 40.5 65 -1.3 29.6
15:00 1007 29.74 836 24.69 4.6 40.2 64 -1.6 29.2
15:05 1007 29.74 836 24.69 4.8 40.7 63 -1.5 29.2
15:10 1007 29.74 836 24.69 4.1 39.4 66 -1.7 28.9
15:15 1007 29.74 836 24.69 4.3 39.7 63 -2.1 28.3
15:20 1007 29.74 836 24.69 3.9 39.1 65 -2.1 28.2
15:25 1007 29.74 836 24.69 4.1 39.3 64 -2.1 28.2
15:30 1007 29.74 836 24.69 3.5 38.2 67 -2.1 28.3
15:35 1007 29.74 836 24.69 3.7 38.6 66 -2.1 28.1
15:40 1007 29.74 836 24.69 3.6 38.5 67 -1.9 28.6
15:45 1007 29.74 836 24.69 3.6 38.5 66 -2.2 28.1
15:50 1007 29.74 836 24.69 3.4 38.1 67 -2.1 28.1
15:55 1007 29.74 836 24.69 3.2 37.8 67 -2.2 28
16:00 1007 29.74 836 24.69 3.2 37.7 69 -2 28.4
16:05 1007 29.74 836 24.69 3.5 38.2 66 -2.3 27.8
16:10 1007 29.74 836 24.69 3.2 37.7 68 -2.1 28.2
16:15 1007 29.74 836 24.69 2.9 37.1 70 -2.1 28.2
16:20 1007 29.74 836 24.69 2.3 36.1 72 -2.4 27.8
16:25 1007 29.74 836 24.69 2 35.5 72 -2.5 27.5
16:30 1007 29.74 836 24.69 1.9 35.4 72 -2.6 27.3
16:35 1006 29.71 836 24.69 1.8 35.2 73 -2.5 27.5
16:40 1007 29.74 836 24.69 1.7 35 74 -2.6 27.4
16:45 1007 29.74 836 24.69 1.5 34.8 75 -2.4 27.7
16:50 1006 29.71 836 24.69 1.5 34.6 75 -2.5 27.5
16:55 1006 29.71 836 24.69 1.4 34.5 75 -2.5 27.4
17:00 1006 29.71 836 24.69 1.3 34.3 76 -2.5 27.6
17:05 1007 29.74 836 24.69 1.2 34.2 76 -2.5 27.4
17:10 1006 29.71 836 24.69 1.1 34 76 -2.7 27.2
17:15 1006 29.71 836 24.69 1.2 34.1 76 -2.7 27.2
17:20 1006 29.71 836 24.69 1.2 34.2 75 -2.7 27.1
17:25 1006 29.71 836 24.69 1.2 34.2 75 -2.7 27.1
17:30 1006 29.71 836 24.69 1.1 34.1 75 -2.8 27
17:35 1006 29.71 836 24.69 1 33.8 76 -2.8 27
17:40 1006 29.71 836 24.69 0.8 33.4 77 -2.8 26.9
17:45 1006 29.71 836 24.69 0.8 33.4 76 -2.9 26.7
17:50 1006 29.71 836 24.69 0.7 33.3 77 -2.9 26.8
17:55 1006 29.71 836 24.69 0.5 33 77 -3 26.6
18:00 1006 29.71 836 24.69 0.5 33 77 -3 26.5
18:05 1006 29.71 836 24.69 0.5 32.9 77 -3 26.6
18:10 1006 29.71 836 24.69 0.3 32.6 78 -3 26.6
18:15 1006 29.71 836 24.69 0.1 32.2 79 -3 26.5
18:20 1006 29.71 836 24.69 -0 32 80 -3 26.6
18:25 1006 29.71 836 24.69 -0.3 31.5 82 -3 26.5
18:30 1006 29.71 835 24.66 -0.4 31.3 82 -3.1 26.4
18:35 1006 29.71 835 24.66 -0.4 31.2 82 -3.1 26.5
18:40 1006 29.71 835 24.66 -0.6 30.9 83 -3.1 26.4
18:45 1006 29.71 835 24.66 -0.7 30.7 83 -3.2 26.3
18:50 1006 29.71 835 24.66 -0.6 30.9 83 -3.1 26.3
18:55 1006 29.71 836 24.69 -0.6 30.9 83 -3.1 26.4
19:00 1006 29.71 836 24.69 -0.6 31 83 -3.2 26.3
19:05 1006 29.71 836 24.69 -0.6 31 83 -3.1 26.4
19:10 1006 29.71 835 24.66 -0.7 30.8 83 -3.2 26.3
19:15 1006 29.71 835 24.66 -0.5 31 82 -3.2 26.3
19:20 1006 29.71 836 24.69 -0.6 31 83 -3.2 26.3
19:25 1006 29.71 836 24.69 -0.5 31 82 -3.2 26.2
19:30 1006 29.71 836 24.69 -0.4 31.3 81 -3.2 26.2
19:35 1006 29.71 836 24.69 -0.3 31.4 81 -3.2 26.2
19:40 1007 29.74 836 24.69 -0.4 31.4 81 -3.2 26.3
19:45 1006 29.71 836 24.69 -0.4 31.3 82 -3.2 26.3
19:50 1006 29.71 836 24.69 -0.3 31.4 81 -3.1 26.3
19:55 1006 29.71 836 24.69 -0.3 31.5 81 -3.2 26.3
20:00 1006 29.71 835 24.66 -0.2 31.6 81 -3.1 26.4
20:05 1006 29.71 836 24.69 -0.2 31.6 81 -3.2 26.3
20:10 1006 29.71 835 24.66 -0.2 31.6 80 -3.2 26.2
20:15 1006 29.71 836 24.69 -0.1 31.8 80 -3.2 26.3
20:20 1006 29.71 836 24.69 -0.2 31.6 80 -3.2 26.3
20:25 1006 29.71 836 24.69 -0.3 31.5 80 -3.2 26.2
20:30 1006 29.71 836 24.69 -0.3 31.5 81 -3.2 26.3
20:35 1007 29.74 836 24.69 -0.2 31.6 81 -3.2 26.3
20:40 1007 29.74 836 24.69 -0.2 31.6 81 -3.2 26.2
20:45 1007 29.74 836 24.69 -0.2 31.7 81 -3.1 26.5
20:50 1007 29.74 836 24.69 -0.1 31.9 80 -3.1 26.4
20:55 1007 29.74 836 24.69 0.3 32.5 78 -3.1 26.4
21:00 1007 29.74 836 24.69 0.3 32.5 78 -3.1 26.4
21:05 1007 29.74 836 24.69 0.4 32.7 78 -3 26.6
21:10 1007 29.74 836 24.69 0.5 32.8 78 -3 26.6
21:15 1007 29.74 836 24.69 0.5 32.8 78 -2.9 26.7
21:20 1007 29.74 836 24.69 0.3 32.6 78 -3 26.5
21:25 1007 29.74 836 24.69 0.3 32.5 78 -3.1 26.5
21:30 1007 29.74 836 24.69 0.2 32.4 79 -3 26.6
21:35 1007 29.74 836 24.69 0.2 32.4 79 -3 26.6
21:40 1007 29.74 836 24.69 0.1 32.3 79 -3 26.5
21:45 1006 29.71 836 24.69 0.2 32.4 79 -2.9 26.7
21:50 1006 29.71 836 24.69 0.2 32.4 80 -2.9 26.8
21:55 1006 29.71 836 24.69 0.2 32.3 80 -2.9 26.7
22:00 1006 29.71 836 24.69 0.1 32.2 80 -2.9 26.7
22:05 1006 29.71 835 24.66 0.1 32.2 80 -3 26.7
22:10 1006 29.71 835 24.66 -0 32 81 -2.9 26.7
22:15 1006 29.71 835 24.66 0 32 80 -3 26.7
22:20 1006 29.71 835 24.66 0 32.1 80 -2.9 26.7
22:25 1006 29.71 835 24.66 0.1 32.2 80 -2.9 26.8
22:30 1006 29.71 835 24.66 0.1 32.2 80 -2.9 26.7
22:35 1006 29.71 835 24.66 0.1 32.2 80 -2.9 26.8
22:40 1006 29.71 835 24.66 0.2 32.4 80 -2.9 26.8
22:45 1006 29.71 835 24.66 0.2 32.4 80 -2.9 26.8
22:50 1006 29.71 835 24.66 0.3 32.5 80 -2.8 27
22:55 1006 29.71 835 24.66 0.2 32.4 80 -2.8 27
23:00 1006 29.71 835 24.66 0.1 32.3 80 -3 26.7
23:05 1006 29.71 835 24.66 0.2 32.3 80 -2.9 26.8
23:10 1006 29.71 835 24.66 0.2 32.4 80 -2.8 27
23:15 1006 29.71 835 24.66 0.3 32.6 80 -2.8 27
23:20 1006 29.71 835 24.66 0.5 32.8 80 -2.7 27.2
23:25 1006 29.71 835 24.66 0.5 32.9 80 -2.6 27.3
23:30 1006 29.71 835 24.66 0.5 32.9 80 -2.6 27.3
23:35 1006 29.71 835 24.66 0.5 32.8 80 -2.6 27.3
23:40 1006 29.71 835 24.66 0.5 32.9 79 -2.7 27.2
23:45 1006 29.71 835 24.66 0.6 33.1 78 -2.8 27
23:50 1006 29.71 835 24.66 0.8 33.4 78 -2.6 27.2
23:55 1006 29.71 835 24.66 1 33.8 77 -2.6 27.4
24:00 1006 29.71 835 24.66 1.3 34.4 76 -2.5 27.5